Weather at Tay Loc Airfield [CLOSED]

Public forecast

Using degrees Celsius for public forecast. Weather courtesy of forecast.io.

Closest aviation weather report (METAR) to Tay Loc Airfield

Closest report is Phu Bai International Airport, 9.0 nm (16.6 km) ESE.

2024/07/16 11:30 (retrieved 13 minutes ago)

VVPB 161130Z 07006KT 9999 FEW015 SCT050 29/26 Q1003 NOSIG

Closest aviation forecast (TAF) to Tay Loc Airfield

Closest forecast is Phu Bai International Airport, 9.0 nm (16.6 km) ESE.

2024/07/16 06:00 (retrieved 6 hours ago)

TAF VVPB 160500Z 1606/1706 07008KT 9999 FEW015 SCT060 TEMPO 1607/1610 TS SCT013 FEW015CB SCT060 TEMPO 1610/1615 4000 TSRA SCT013 FEW015CB BKN050